sensor_id;sensor_type;location;lat;lon;timestamp;P1;durP1;ratioP1;P2;durP2;ratioP2
44730;SDS011;30458;47.448;19.032;2022-08-25T00:05:09;385.73;;;359.45;;
44730;SDS011;30458;47.448;19.032;2022-08-25T00:15:09;678.40;;;633.35;;
44730;SDS011;30458;47.448;19.032;2022-08-25T00:25:10;780.95;;;731.05;;
44730;SDS011;30458;47.448;19.032;2022-08-25T00:35:14;776.13;;;727.05;;
44730;SDS011;30458;47.448;19.032;2022-08-25T00:45:18;825.55;;;772.08;;
44730;SDS011;30458;47.448;19.032;2022-08-25T00:55:23;873.55;;;813.17;;
44730;SDS011;30458;47.448;19.032;2022-08-25T01:05:27;891.80;;;829.72;;
44730;SDS011;30458;47.448;19.032;2022-08-25T01:15:29;800.15;;;747.10;;
44730;SDS011;30458;47.448;19.032;2022-08-25T01:35:37;888.75;;;827.03;;
44730;SDS011;30458;47.448;19.032;2022-08-25T01:45:42;926.15;;;857.30;;
44730;SDS011;30458;47.448;19.032;2022-08-25T01:55:47;894.75;;;830.75;;
44730;SDS011;30458;47.448;19.032;2022-08-25T02:05:55;698.72;;;652.53;;
44730;SDS011;30458;47.448;19.032;2022-08-25T02:15:57;722.65;;;678.50;;
44730;SDS011;30458;47.448;19.032;2022-08-25T02:26:00;480.50;;;452.55;;
44730;SDS011;30458;47.448;19.032;2022-08-25T02:36:01;651.00;;;612.55;;
44730;SDS011;30458;47.448;19.032;2022-08-25T02:46:02;564.88;;;533.35;;
44730;SDS011;30458;47.448;19.032;2022-08-25T02:56:03;421.23;;;397.15;;
44730;SDS011;30458;47.448;19.032;2022-08-25T03:06:07;627.50;;;592.10;;
44730;SDS011;30458;47.448;19.032;2022-08-25T03:16:14;628.33;;;592.65;;
44730;SDS011;30458;47.448;19.032;2022-08-25T03:26:19;654.93;;;617.67;;
44730;SDS011;30458;47.448;19.032;2022-08-25T03:36:41;705.35;;;662.70;;
44730;SDS011;30458;47.448;19.032;2022-08-25T03:46:46;429.73;;;405.33;;
44730;SDS011;30458;47.448;19.032;2022-08-25T03:56:52;580.53;;;548.67;;
44730;SDS011;30458;47.448;19.032;2022-08-25T04:06:54;622.15;;;586.53;;
44730;SDS011;30458;47.448;19.032;2022-08-25T04:16:54;629.80;;;593.57;;
44730;SDS011;30458;47.448;19.032;2022-08-25T04:26:55;747.92;;;702.22;;
44730;SDS011;30458;47.448;19.032;2022-08-25T04:37:01;826.00;;;772.72;;
44730;SDS011;30458;47.448;19.032;2022-08-25T04:47:07;844.67;;;785.90;;
44730;SDS011;30458;47.448;19.032;2022-08-25T04:57:10;909.53;;;841.35;;
44730;SDS011;30458;47.448;19.032;2022-08-25T05:07:10;762.63;;;700.77;;
44730;SDS011;30458;47.448;19.032;2022-08-25T05:17:11;1397.20;;;997.28;;
44730;SDS011;30458;47.448;19.032;2022-08-25T05:27:16;1370.65;;;991.65;;
44730;SDS011;30458;47.448;19.032;2022-08-25T05:37:19;1174.38;;;940.20;;
44730;SDS011;30458;47.448;19.032;2022-08-25T05:47:21;935.55;;;846.00;;
44730;SDS011;30458;47.448;19.032;2022-08-25T05:57:21;1246.43;;;945.78;;
44730;SDS011;30458;47.448;19.032;2022-08-25T06:07:22;1196.07;;;919.20;;
44730;SDS011;30458;47.448;19.032;2022-08-25T06:17:25;1625.55;;;999.90;;
44730;SDS011;30458;47.448;19.032;2022-08-25T06:27:26;1263.67;;;950.83;;
44730;SDS011;30458;47.448;19.032;2022-08-25T06:37:27;708.83;;;651.30;;
44730;SDS011;30458;47.448;19.032;2022-08-25T06:47:31;770.72;;;696.35;;
44730;SDS011;30458;47.448;19.032;2022-08-25T06:57:32;587.53;;;536.13;;
44730;SDS011;30458;47.448;19.032;2022-08-25T07:07:35;342.75;;;317.25;;
44730;SDS011;30458;47.448;19.032;2022-08-25T07:17:38;315.42;;;296.92;;
44730;SDS011;30458;47.448;19.032;2022-08-25T07:27:39;417.07;;;392.20;;
44730;SDS011;30458;47.448;19.032;2022-08-25T07:37:44;484.37;;;455.80;;
44730;SDS011;30458;47.448;19.032;2022-08-25T07:47:52;274.63;;;257.73;;
44730;SDS011;30458;47.448;19.032;2022-08-25T07:57:53;286.38;;;263.20;;
44730;SDS011;30458;47.448;19.032;2022-08-25T08:07:56;231.70;;;217.50;;
44730;SDS011;30458;47.448;19.032;2022-08-25T08:17:59;329.33;;;309.73;;
44730;SDS011;30458;47.448;19.032;2022-08-25T08:28:01;358.33;;;332.25;;
44730;SDS011;30458;47.448;19.032;2022-08-25T08:38:03;281.02;;;264.63;;
44730;SDS011;30458;47.448;19.032;2022-08-25T08:48:09;495.83;;;459.73;;
44730;SDS011;30458;47.448;19.032;2022-08-25T09:08:52;379.00;;;353.98;;
44730;SDS011;30458;47.448;19.032;2022-08-25T09:29:29;578.17;;;522.30;;
44730;SDS011;30458;47.448;19.032;2022-08-25T09:40:16;539.60;;;498.23;;
44730;SDS011;30458;47.448;19.032;2022-08-25T09:50:18;984.80;;;841.95;;
44730;SDS011;30458;47.448;19.032;2022-08-25T10:00:30;1392.40;;;976.77;;
44730;SDS011;30458;47.448;19.032;2022-08-25T10:10:33;1360.00;;;956.45;;
44730;SDS011;30458;47.448;19.032;2022-08-25T10:20:37;1059.07;;;888.17;;
44730;SDS011;30458;47.448;19.032;2022-08-25T11:01:42;940.80;;;839.10;;
44730;SDS011;30458;47.448;19.032;2022-08-25T11:22:41;1042.22;;;889.20;;
44730;SDS011;30458;47.448;19.032;2022-08-25T11:32:53;1028.40;;;894.55;;
44730;SDS011;30458;47.448;19.032;2022-08-25T11:43:15;953.03;;;849.17;;
44730;SDS011;30458;47.448;19.032;2022-08-25T11:53:40;1082.57;;;907.05;;
44730;SDS011;30458;47.448;19.032;2022-08-25T12:13:46;741.37;;;677.97;;
44730;SDS011;30458;47.448;19.032;2022-08-25T12:34:17;713.95;;;650.85;;
44730;SDS011;30458;47.448;19.032;2022-08-25T12:44:43;758.38;;;695.80;;
44730;SDS011;30458;47.448;19.032;2022-08-25T12:54:52;1070.80;;;906.53;;
44730;SDS011;30458;47.448;19.032;2022-08-25T13:05:09;912.10;;;822.65;;
44730;SDS011;30458;47.448;19.032;2022-08-25T13:26:00;869.13;;;788.55;;
44730;SDS011;30458;47.448;19.032;2022-08-25T13:36:06;849.13;;;765.73;;
44730;SDS011;30458;47.448;19.032;2022-08-25T13:46:36;695.08;;;633.80;;
44730;SDS011;30458;47.448;19.032;2022-08-25T13:56:42;945.60;;;842.45;;
44730;SDS011;30458;47.448;19.032;2022-08-25T14:06:43;926.33;;;828.28;;
44730;SDS011;30458;47.448;19.032;2022-08-25T14:16:52;931.47;;;831.03;;
44730;SDS011;30458;47.448;19.032;2022-08-25T14:27:04;1003.70;;;892.90;;
44730;SDS011;30458;47.448;19.032;2022-08-25T14:37:14;1096.57;;;909.60;;
44730;SDS011;30458;47.448;19.032;2022-08-25T14:47:17;1002.90;;;892.33;;
44730;SDS011;30458;47.448;19.032;2022-08-25T14:57:20;921.60;;;823.38;;
44730;SDS011;30458;47.448;19.032;2022-08-25T15:07:21;1125.15;;;914.60;;
44730;SDS011;30458;47.448;19.032;2022-08-25T15:17:40;1051.03;;;888.33;;
44730;SDS011;30458;47.448;19.032;2022-08-25T15:27:43;1238.47;;;946.38;;
44730;SDS011;30458;47.448;19.032;2022-08-25T15:37:47;1371.68;;;954.67;;
44730;SDS011;30458;47.448;19.032;2022-08-25T15:47:53;1313.47;;;952.70;;
44730;SDS011;30458;47.448;19.032;2022-08-25T15:57:53;1421.97;;;962.30;;
44730;SDS011;30458;47.448;19.032;2022-08-25T16:07:54;1598.72;;;974.70;;
44730;SDS011;30458;47.448;19.032;2022-08-25T16:17:58;1083.20;;;788.33;;
44730;SDS011;30458;47.448;19.032;2022-08-25T16:28:00;1729.35;;;992.13;;
44730;SDS011;30458;47.448;19.032;2022-08-25T16:38:02;1247.30;;;906.58;;
44730;SDS011;30458;47.448;19.032;2022-08-25T16:48:04;1129.68;;;886.90;;
44730;SDS011;30458;47.448;19.032;2022-08-25T16:58:05;1146.88;;;884.85;;
44730;SDS011;30458;47.448;19.032;2022-08-25T17:08:07;1373.70;;;935.00;;
44730;SDS011;30458;47.448;19.032;2022-08-25T17:18:27;883.83;;;794.40;;
44730;SDS011;30458;47.448;19.032;2022-08-25T17:28:28;928.38;;;831.08;;
44730;SDS011;30458;47.448;19.032;2022-08-25T17:38:29;894.95;;;804.35;;
44730;SDS011;30458;47.448;19.032;2022-08-25T17:48:34;852.05;;;784.90;;
44730;SDS011;30458;47.448;19.032;2022-08-25T17:58:43;839.15;;;773.58;;
44730;SDS011;30458;47.448;19.032;2022-08-25T18:08:48;860.75;;;791.13;;
44730;SDS011;30458;47.448;19.032;2022-08-25T18:18:52;877.13;;;812.00;;
44730;SDS011;30458;47.448;19.032;2022-08-25T18:28:54;1057.63;;;973.13;;
44730;SDS011;30458;47.448;19.032;2022-08-25T18:38:57;983.97;;;909.53;;
44730;SDS011;30458;47.448;19.032;2022-08-25T18:49:16;976.55;;;902.30;;
44730;SDS011;30458;47.448;19.032;2022-08-25T18:59:20;1074.85;;;989.38;;
44730;SDS011;30458;47.448;19.032;2022-08-25T19:09:21;1024.82;;;948.38;;
44730;SDS011;30458;47.448;19.032;2022-08-25T19:19:22;1009.75;;;933.70;;
44730;SDS011;30458;47.448;19.032;2022-08-25T19:29:23;1056.97;;;972.17;;
44730;SDS011;30458;47.448;19.032;2022-08-25T19:39:26;1108.20;;;999.90;;
44730;SDS011;30458;47.448;19.032;2022-08-25T19:49:30;1121.32;;;999.90;;
44730;SDS011;30458;47.448;19.032;2022-08-25T19:59:39;1137.88;;;999.90;;
44730;SDS011;30458;47.448;19.032;2022-08-25T20:09:41;1080.82;;;994.47;;
44730;SDS011;30458;47.448;19.032;2022-08-25T20:19:45;1045.72;;;965.65;;
44730;SDS011;30458;47.448;19.032;2022-08-25T20:29:47;1138.68;;;999.90;;
44730;SDS011;30458;47.448;19.032;2022-08-25T20:39:52;1179.47;;;999.90;;
44730;SDS011;30458;47.448;19.032;2022-08-25T20:49:53;1162.43;;;999.90;;
44730;SDS011;30458;47.448;19.032;2022-08-25T20:59:59;1181.18;;;999.90;;
44730;SDS011;30458;47.448;19.032;2022-08-25T21:10:01;1244.05;;;999.90;;
44730;SDS011;30458;47.448;19.032;2022-08-25T21:20:09;1235.68;;;999.90;;
44730;SDS011;30458;47.448;19.032;2022-08-25T21:30:10;1226.85;;;999.90;;
44730;SDS011;30458;47.448;19.032;2022-08-25T21:40:11;1209.20;;;999.90;;
44730;SDS011;30458;47.448;19.032;2022-08-25T21:50:12;1202.97;;;999.90;;
44730;SDS011;30458;47.448;19.032;2022-08-25T22:00:13;1207.40;;;999.90;;
44730;SDS011;30458;47.448;19.032;2022-08-25T22:10:14;1200.53;;;999.90;;
44730;SDS011;30458;47.448;19.032;2022-08-25T22:20:16;1191.15;;;999.90;;
44730;SDS011;30458;47.448;19.032;2022-08-25T22:30:20;1174.07;;;999.90;;
44730;SDS011;30458;47.448;19.032;2022-08-25T22:40:20;1169.55;;;999.90;;
44730;SDS011;30458;47.448;19.032;2022-08-25T22:50:21;1178.50;;;999.90;;
44730;SDS011;30458;47.448;19.032;2022-08-25T23:00:24;1194.97;;;999.90;;
44730;SDS011;30458;47.448;19.032;2022-08-25T23:10:30;1200.90;;;999.90;;
44730;SDS011;30458;47.448;19.032;2022-08-25T23:20:31;1225.10;;;999.90;;
44730;SDS011;30458;47.448;19.032;2022-08-25T23:30:51;1219.20;;;999.90;;
44730;SDS011;30458;47.448;19.032;2022-08-25T23:40:52;1361.72;;;999.90;;
44730;SDS011;30458;47.448;19.032;2022-08-25T23:50:53;1165.97;;;999.90;;
